Time;durP1;ratioP1;P1;durP2;ratioP2;P2;SDS_P1;SDS_P2;PMS_P1;PMS_P2;Temp;Humidity;BMP_temperature;BMP_pressure;BME280_temperature;BME280_humidity;BME280_pressure;Samples;Min_cycle;Max_cycle;Signal;HPM_P1;HPM_P2
2022/11/09 00:00:05;;;;;;;3.15;1.30;;;11.50;99.90;;;;;;4801882;29;20050;-83
2022/11/09 00:02:31;;;;;;;8.30;1.75;;;11.50;99.90;;;;;;4816725;29;20050;-81
2022/11/09 00:04:57;;;;;;;6.03;1.40;;;11.50;99.90;;;;;;4797040;29;20424;-82
2022/11/09 00:07:23;;;;;;;6.18;1.55;;;11.50;99.90;;;;;;4802998;29;20058;-81
2022/11/09 00:09:52;;;;;;;4.88;1.30;;;11.50;99.90;;;;;;4801582;29;20062;-82
2022/11/09 00:12:17;;;;;;;5.80;1.27;;;11.50;99.90;;;;;;4801544;29;20049;-82
2022/11/09 00:14:43;;;;;;;5.53;1.40;;;11.40;99.90;;;;;;4800852;29;20050;-81
2022/11/09 00:17:09;;;;;;;4.88;1.42;;;11.40;99.90;;;;;;4814663;29;20085;-83
2022/11/09 00:19:34;;;;;;;3.30;1.10;;;11.40;99.90;;;;;;4803118;29;20210;-82
2022/11/09 00:22:00;;;;;;;6.10;1.50;;;11.50;99.90;;;;;;4802986;29;20056;-81
2022/11/09 00:24:26;;;;;;;5.60;1.38;;;11.50;99.90;;;;;;4787128;29;20042;-82
2022/11/09 00:26:52;;;;;;;5.38;2.17;;;11.20;99.90;;;;;;4774489;29;20096;-83
2022/11/09 00:29:17;;;;;;;6.95;1.70;;;11.50;99.90;;;;;;4788925;29;20056;-81
2022/11/09 00:31:43;;;;;;;4.20;1.92;;;11.50;99.90;;;;;;4789781;29;20053;-82
2022/11/09 00:34:09;;;;;;;5.78;2.00;;;11.50;99.90;;;;;;4815832;29;20064;-82
2022/11/09 00:36:35;;;;;;;5.80;1.70;;;11.50;99.90;;;;;;4788770;29;20420;-82
2022/11/09 00:39:00;;;;;;;8.07;1.90;;;11.50;99.90;;;;;;4813265;29;20058;-82
2022/11/09 00:41:31;;;;;;;7.53;1.50;;;10.30;99.90;;;;;;4787945;29;20655;-82
2022/11/09 00:44:00;;;;;;;6.05;1.85;;;11.50;99.90;;;;;;4807811;29;20149;-82
2022/11/09 00:46:26;;;;;;;9.27;2.35;;;11.50;99.90;;;;;;4788638;29;20062;-82
2022/11/09 00:48:54;;;;;;;5.32;1.65;;;11.50;99.90;;;;;;4803535;29;20061;-82
2022/11/09 00:51:23;;;;;;;4.85;1.40;;;11.40;99.90;;;;;;4804087;29;20060;-82
2022/11/09 00:53:56;;;;;;;7.05;1.60;;;11.50;99.90;;;;;;4803717;29;20054;-82
2022/11/09 00:56:22;;;;;;;5.35;1.90;;;11.40;99.90;;;;;;4803310;29;20053;-82
2022/11/09 00:58:55;;;;;;;6.30;1.40;;;11.40;99.90;;;;;;4812627;29;20137;-81
2022/11/09 01:01:24;;;;;;;8.15;1.95;;;11.30;99.90;;;;;;4801600;29;20057;-82
2022/11/09 01:03:50;;;;;;;9.52;2.20;;;11.30;99.90;;;;;;4821617;29;20053;-81
2022/11/09 01:06:20;;;;;;;6.22;1.60;;;11.30;99.90;;;;;;4803145;29;20057;-82
2022/11/09 01:08:47;;;;;;;9.38;2.05;;;11.30;99.90;;;;;;4816965;29;20050;-82
2022/11/09 01:11:13;;;;;;;7.10;2.17;;;10.70;99.90;;;;;;4801829;29;20058;-83
2022/11/09 01:13:39;;;;;;;6.10;2.00;;;11.30;99.90;;;;;;4806053;29;20077;-81
2022/11/09 01:16:08;;;;;;;8.20;2.05;;;11.20;99.90;;;;;;4805654;29;20070;-81
2022/11/09 01:18:35;;;;;;;7.45;1.80;;;11.30;99.90;;;;;;4802621;29;20053;-82
2022/11/09 01:21:03;;;;;;;8.32;1.75;;;11.20;99.90;;;;;;4802517;29;20612;-82
2022/11/09 01:23:29;;;;;;;6.32;1.60;;;11.30;99.90;;;;;;4830586;29;20050;-82
2022/11/09 01:26:00;;;;;;;6.15;1.90;;;11.20;99.90;;;;;;4788549;29;20057;-81
2022/11/09 01:28:26;;;;;;;8.18;2.00;;;11.40;99.90;;;;;;4816738;29;20054;-81
2022/11/09 01:30:52;;;;;;;8.52;2.10;;;10.60;99.90;;;;;;4804667;29;20401;-82
2022/11/09 01:33:18;;;;;;;7.13;2.13;;;11.30;99.90;;;;;;4801206;29;20057;-82
2022/11/09 01:35:44;;;;;;;7.38;1.90;;;11.30;99.90;;;;;;4802687;29;20050;-82
2022/11/09 01:38:11;;;;;;;6.43;2.20;;;11.30;99.90;;;;;;4786872;29;20492;-81
2022/11/09 01:40:38;;;;;;;6.55;1.60;;;11.30;99.90;;;;;;4816152;29;20081;-81
2022/11/09 01:43:19;;;;;;;5.93;1.75;;;11.30;99.90;;;;;;4820892;29;20132;-82
2022/11/09 01:45:50;;;;;;;6.97;1.95;;;11.30;99.90;;;;;;4803999;29;20140;-81
2022/11/09 01:48:20;;;;;;;4.45;1.33;;;11.30;99.90;;;;;;4815298;29;20567;-82
2022/11/09 01:51:06;;;;;;;9.95;2.28;;;11.30;99.90;;;;;;4817965;29;20065;-81
2022/11/09 01:53:36;;;;;;;9.98;2.08;;;11.30;99.90;;;;;;4803837;29;20050;-81
2022/11/09 01:56:05;;;;;;;7.75;2.00;;;11.30;99.90;;;;;;4815461;29;20049;-82
2022/11/09 01:58:45;;;;;;;8.75;1.88;;;11.30;99.90;;;;;;4815736;29;20046;-82
2022/11/09 02:01:13;;;;;;;10.30;2.53;;;11.30;99.90;;;;;;4820620;29;20064;-82
2022/11/09 02:03:52;;;;;;;7.60;2.20;;;11.30;99.90;;;;;;4816616;29;20057;-82
2022/11/09 02:06:20;;;;;;;10.07;2.67;;;11.30;99.90;;;;;;4803666;29;20069;-82
2022/11/09 02:08:48;;;;;;;7.20;2.35;;;11.20;99.90;;;;;;4817764;29;20470;-82
2022/11/09 02:11:17;;;;;;;6.22;2.17;;;11.30;99.90;;;;;;4820668;29;20499;-82
2022/11/09 02:13:56;;;;;;;7.15;2.38;;;11.50;99.90;;;;;;4815309;29;20133;-82
2022/11/09 02:16:22;;;;;;;7.35;2.72;;;11.30;99.90;;;;;;4814418;29;20107;-83
2022/11/09 02:19:01;;;;;;;6.45;2.28;;;11.20;99.90;;;;;;4813927;29;20067;-82
2022/11/09 02:21:29;;;;;;;9.57;2.72;;;11.30;99.90;;;;;;4796392;29;20737;-82
2022/11/09 02:23:55;;;;;;;5.68;2.08;;;11.20;99.90;;;;;;4811578;29;20086;-82
2022/11/09 02:26:47;;;;;;;7.00;2.05;;;11.20;99.90;;;;;;4783387;29;20054;-82
2022/11/09 02:29:21;;;;;;;9.43;2.60;;;11.20;99.90;;;;;;4815042;29;20042;-81
2022/11/09 02:31:58;;;;;;;7.38;1.95;;;11.20;99.90;;;;;;4797513;29;20495;-82
2022/11/09 02:34:24;;;;;;;7.28;2.28;;;11.20;99.90;;;;;;4810973;29;20084;-81
2022/11/09 02:36:50;;;;;;;9.23;2.40;;;11.10;99.90;;;;;;4799747;29;20089;-81
2022/11/09 02:39:18;;;;;;;9.25;2.30;;;11.20;99.90;;;;;;4790883;29;20465;-82
2022/11/09 02:42:04;;;;;;;7.30;2.38;;;11.20;99.90;;;;;;4829443;29;20065;-82
2022/11/09 02:44:38;;;;;;;9.63;2.30;;;11.20;99.90;;;;;;4828313;29;20061;-82
2022/11/09 02:47:04;;;;;;;8.05;2.00;;;11.20;99.90;;;;;;4799868;29;20062;-82
2022/11/09 02:49:29;;;;;;;7.55;2.30;;;11.20;99.90;;;;;;4798043;29;20061;-82
2022/11/09 02:51:55;;;;;;;9.27;2.30;;;11.20;99.90;;;;;;4796239;29;20461;-82
2022/11/09 02:54:21;;;;;;;6.40;2.35;;;11.30;99.90;;;;;;4785453;29;20058;-83
2022/11/09 02:56:46;;;;;;;9.70;2.20;;;11.30;99.90;;;;;;4800442;29;20058;-83
2022/11/09 02:59:12;;;;;;;11.25;2.55;;;11.30;99.90;;;;;;4810153;29;20054;-83
2022/11/09 03:01:38;;;;;;;9.82;2.42;;;11.30;99.90;;;;;;4799142;29;20559;-82
2022/11/09 03:04:04;;;;;;;7.55;2.97;;;11.30;99.90;;;;;;4799561;29;20523;-83
2022/11/09 03:06:35;;;;;;;11.35;2.20;;;11.30;99.90;;;;;;4784501;29;20058;-82
2022/11/09 03:09:02;;;;;;;8.95;3.00;;;11.30;99.90;;;;;;4787152;29;20150;-83
2022/11/09 03:11:28;;;;;;;12.30;3.05;;;11.30;99.90;;;;;;4803388;29;20127;-83
2022/11/09 03:13:57;;;;;;;7.63;1.98;;;11.30;99.90;;;;;;4799572;29;20125;-83
2022/11/09 03:16:23;;;;;;;9.32;2.47;;;11.30;99.90;;;;;;4797904;29;20090;-84
2022/11/09 03:18:50;;;;;;;6.97;2.10;;;11.30;99.90;;;;;;4829554;29;20058;-82
2022/11/09 03:21:15;;;;;;;8.43;2.50;;;11.30;99.90;;;;;;4817854;29;20062;-82
2022/11/09 03:23:41;;;;;;;10.25;2.10;;;11.30;99.90;;;;;;4813143;29;20057;-84
2022/11/09 03:26:07;;;;;;;9.40;2.35;;;11.30;99.90;;;;;;4784275;29;20458;-83
2022/11/09 03:28:32;;;;;;;9.60;2.55;;;11.30;99.90;;;;;;4797723;29;20119;-82
2022/11/09 03:30:58;;;;;;;10.73;2.40;;;11.30;99.90;;;;;;4778473;29;20488;-83
2022/11/09 03:33:24;;;;;;;22.95;2.80;;;11.30;99.90;;;;;;4801347;29;20091;-83
2022/11/09 03:35:50;;;;;;;8.90;1.88;;;11.40;99.90;;;;;;4799672;29;20066;-83
2022/11/09 03:38:16;;;;;;;13.00;2.38;;;11.40;99.90;;;;;;4802358;29;20088;-82
2022/11/09 03:40:42;;;;;;;12.45;2.45;;;11.40;99.90;;;;;;4811781;29;20050;-82
2022/11/09 03:43:07;;;;;;;9.18;1.98;;;11.40;99.90;;;;;;4797532;29;20047;-82
2022/11/09 03:45:33;;;;;;;8.90;2.30;;;11.40;99.90;;;;;;4813773;29;20051;-83
2022/11/09 03:47:59;;;;;;;7.90;2.63;;;11.40;99.90;;;;;;4797364;29;20581;-82
2022/11/09 03:50:27;;;;;;;10.02;2.55;;;11.50;99.90;;;;;;4794801;29;20503;-83
2022/11/09 03:52:52;;;;;;;10.38;2.00;;;11.40;99.90;;;;;;4795288;29;20061;-82
2022/11/09 03:55:18;;;;;;;11.35;2.63;;;11.40;99.90;;;;;;4799418;29;20412;-83
2022/11/09 03:57:45;;;;;;;6.70;2.15;;;11.40;99.90;;;;;;4790060;29;20586;-83
2022/11/09 04:00:13;;;;;;;4.78;1.98;;;11.40;99.90;;;;;;4794327;29;20142;-83
2022/11/09 04:02:39;;;;;;;11.05;2.13;;;11.40;99.90;;;;;;4781677;29;20051;-83
2022/11/09 04:05:06;;;;;;;13.02;2.15;;;11.40;99.90;;;;;;4809522;29;20589;-83
2022/11/09 04:07:32;;;;;;;8.25;2.05;;;11.40;99.90;;;;;;4811132;29;20089;-83
2022/11/09 04:09:57;;;;;;;10.50;2.10;;;11.50;99.90;;;;;;4799702;29;20129;-82
2022/11/09 04:12:23;;;;;;;8.50;1.65;;;11.50;99.90;;;;;;4797999;29;20158;-83
2022/11/09 04:14:49;;;;;;;10.75;2.22;;;11.50;99.90;;;;;;4809956;29;20058;-83
2022/11/09 04:17:15;;;;;;;11.27;2.15;;;11.40;99.90;;;;;;4782343;29;20073;-82
2022/11/09 04:19:41;;;;;;;8.88;2.20;;;11.40;99.90;;;;;;4796237;29;20051;-82
2022/11/09 04:22:07;;;;;;;10.68;1.95;;;11.40;99.90;;;;;;4798796;29;20060;-82
2022/11/09 04:24:32;;;;;;;9.20;2.50;;;11.50;99.90;;;;;;4810332;29;20050;-84
2022/11/09 04:26:58;;;;;;;9.48;2.10;;;11.40;99.90;;;;;;4781656;29;20069;-83
2022/11/09 04:29:24;;;;;;;8.80;2.42;;;11.40;99.90;;;;;;4798415;29;20053;-81
2022/11/09 04:31:50;;;;;;;9.18;2.47;;;11.40;99.90;;;;;;4811927;29;20492;-83
2022/11/09 04:34:16;;;;;;;11.90;2.40;;;11.40;99.90;;;;;;4809369;29;20081;-84
2022/11/09 04:36:43;;;;;;;7.38;2.00;;;11.40;99.90;;;;;;4813691;29;20058;-82
2022/11/09 04:39:09;;;;;;;11.68;2.55;;;11.40;99.90;;;;;;4797053;29;20404;-82
2022/11/09 04:41:35;;;;;;;8.70;2.10;;;11.30;99.90;;;;;;4784075;29;20054;-83
2022/11/09 04:44:00;;;;;;;7.53;2.10;;;11.30;99.90;;;;;;4810947;29;20818;-83
2022/11/09 04:46:26;;;;;;;8.43;2.13;;;11.30;99.90;;;;;;4798937;29;20054;-84
2022/11/09 04:48:52;;;;;;;9.48;2.50;;;11.20;99.90;;;;;;4814935;29;20125;-83
2022/11/09 04:51:18;;;;;;;11.07;2.60;;;11.60;99.90;;;;;;4796056;29;20181;-84
2022/11/09 04:53:44;;;;;;;11.25;2.20;;;11.30;99.90;;;;;;4799125;29;20046;-83
2022/11/09 04:56:10;;;;;;;13.90;2.47;;;11.30;99.90;;;;;;4797735;29;20136;-84
2022/11/09 04:58:37;;;;;;;6.47;2.00;;;11.30;99.90;;;;;;4798365;29;20588;-84
2022/11/09 05:01:03;;;;;;;11.68;2.60;;;11.30;99.90;;;;;;4800148;29;20082;-84
2022/11/09 05:03:29;;;;;;;8.07;2.17;;;11.30;99.90;;;;;;4796110;29;20050;-84
2022/11/09 05:05:55;;;;;;;12.40;2.38;;;11.40;99.90;;;;;;4784436;29;20058;-82
2022/11/09 05:08:20;;;;;;;10.95;2.22;;;11.30;99.90;;;;;;4783224;29;20568;-83
2022/11/09 05:10:46;;;;;;;13.00;2.22;;;11.30;99.90;;;;;;4769288;29;20111;-82
2022/11/09 05:13:13;;;;;;;13.65;2.78;;;11.40;99.90;;;;;;4794633;29;20469;-82
2022/11/09 05:15:40;;;;;;;10.38;2.30;;;11.30;99.90;;;;;;4789346;29;20098;-82
2022/11/09 05:18:07;;;;;;;11.65;2.17;;;11.30;99.90;;;;;;4803410;29;20133;-83
2022/11/09 05:20:34;;;;;;;10.05;2.35;;;11.20;99.90;;;;;;4788412;29;20054;-83
2022/11/09 05:25:45;;;;;;;7.40;1.92;;;11.20;99.90;;;;;;4806994;29;20065;-82
2022/11/09 05:28:11;;;;;;;9.02;2.00;;;11.20;99.90;;;;;;4816847;29;20083;-83
2022/11/09 05:30:37;;;;;;;9.18;1.75;;;11.10;99.90;;;;;;4788371;29;20568;-82
2022/11/09 05:33:03;;;;;;;10.50;2.30;;;11.10;99.90;;;;;;4805099;29;20049;-83
2022/11/09 05:35:29;;;;;;;7.35;1.67;;;11.10;99.90;;;;;;4822569;29;20049;-83
2022/11/09 05:37:55;;;;;;;8.65;2.20;;;11.10;99.90;;;;;;4819147;29;20763;-81
2022/11/09 05:40:21;;;;;;;8.93;2.45;;;11.00;99.90;;;;;;4800408;29;20042;-82
2022/11/09 05:42:46;;;;;;;9.05;2.40;;;11.00;99.90;;;;;;4805682;29;20046;-82
2022/11/09 05:45:16;;;;;;;6.90;1.98;;;11.00;99.90;;;;;;4800316;29;20109;-83
2022/11/09 05:47:43;;;;;;;9.75;1.85;;;11.00;99.90;;;;;;4817532;29;20050;-82
2022/11/09 05:50:12;;;;;;;11.68;2.30;;;11.00;99.90;;;;;;4815401;29;20469;-83
2022/11/09 05:52:37;;;;;;;6.88;2.20;;;11.00;99.90;;;;;;4814308;29;20053;-82
2022/11/09 05:55:04;;;;;;;9.35;2.25;;;11.00;99.90;;;;;;4789894;29;20125;-82
2022/11/09 05:57:30;;;;;;;8.13;2.10;;;11.00;99.90;;;;;;4819826;29;20106;-82
2022/11/09 05:59:56;;;;;;;7.20;2.30;;;11.00;99.90;;;;;;4814989;29;20058;-82
2022/11/09 06:02:22;;;;;;;9.43;2.22;;;11.00;99.90;;;;;;4791223;29;20477;-83
2022/11/09 06:04:48;;;;;;;7.57;2.38;;;11.00;99.90;;;;;;4789133;29;20045;-82
2022/11/09 06:07:14;;;;;;;5.70;1.67;;;10.90;99.90;;;;;;4791729;29;20050;-83
2022/11/09 06:09:40;;;;;;;5.88;1.73;;;10.90;99.90;;;;;;4803450;29;20400;-82
2022/11/09 06:12:06;;;;;;;9.57;1.90;;;10.90;99.90;;;;;;4817750;29;20056;-82
2022/11/09 06:14:32;;;;;;;9.18;2.03;;;10.90;99.90;;;;;;4802555;29;20054;-83
2022/11/09 06:16:57;;;;;;;12.68;2.50;;;10.90;99.90;;;;;;4809994;29;20061;-83
2022/11/09 06:19:23;;;;;;;4.75;1.73;;;10.90;99.90;;;;;;4788552;29;20102;-83
2022/11/09 06:21:49;;;;;;;6.30;1.60;;;10.90;99.90;;;;;;4799770;29;20073;-83
2022/11/09 06:24:14;;;;;;;9.45;2.13;;;10.90;99.90;;;;;;4795602;29;20077;-82
2022/11/09 06:26:40;;;;;;;8.43;1.70;;;10.90;99.90;;;;;;4800370;29;20480;-83
2022/11/09 06:29:06;;;;;;;9.13;1.98;;;10.80;99.90;;;;;;4818481;29;20404;-88
2022/11/09 06:31:35;;;;;;;7.32;1.67;;;10.90;99.90;;;;;;4803721;29;20085;-84
2022/11/09 06:34:02;;;;;;;5.68;1.60;;;10.80;99.90;;;;;;4800303;29;20440;-83
2022/11/09 06:36:28;;;;;;;10.15;2.95;;;10.80;99.90;;;;;;4802230;29;20141;-84
2022/11/09 06:38:54;;;;;;;6.38;1.58;;;10.80;99.90;;;;;;4838023;29;20065;-82
2022/11/09 06:41:20;;;;;;;8.90;1.88;;;10.70;99.90;;;;;;4798792;29;20049;-83
2022/11/09 06:43:46;;;;;;;8.73;1.70;;;10.80;99.90;;;;;;4818756;29;20726;-82
2022/11/09 06:46:19;;;;;;;7.28;1.90;;;10.80;99.90;;;;;;4803456;29;20062;-86
2022/11/09 06:48:45;;;;;;;7.03;1.80;;;10.80;99.90;;;;;;4787790;29;20062;-81
2022/11/09 06:51:11;;;;;;;9.43;1.80;;;10.80;99.90;;;;;;4797886;29;20060;-83
2022/11/09 06:53:40;;;;;;;8.38;1.75;;;10.80;99.90;;;;;;4817475;29;20045;-84
2022/11/09 06:56:06;;;;;;;9.85;2.03;;;10.80;99.90;;;;;;4811627;29;20559;-84
2022/11/09 06:58:32;;;;;;;7.55;2.15;;;10.70;99.90;;;;;;4795672;29;20115;-81
2022/11/09 07:00:58;;;;;;;10.93;2.13;;;10.80;99.90;;;;;;4817222;29;20046;-81
2022/11/09 07:03:24;;;;;;;7.85;2.42;;;10.80;99.90;;;;;;4801862;29;20049;-83
2022/11/09 07:05:52;;;;;;;6.78;1.85;;;10.70;99.90;;;;;;4813406;29;20149;-83
2022/11/09 07:08:18;;;;;;;6.57;2.10;;;10.70;99.90;;;;;;4802005;29;20061;-82
2022/11/09 07:10:44;;;;;;;3.42;1.42;;;10.80;99.90;;;;;;4798662;29;20142;-82
2022/11/09 07:13:11;;;;;;;5.13;1.75;;;10.80;99.90;;;;;;4803856;29;20058;-83
2022/11/09 07:15:38;;;;;;;7.90;1.95;;;10.70;99.90;;;;;;4813305;29;20453;-82
2022/11/09 07:18:06;;;;;;;7.80;1.90;;;10.80;99.90;;;;;;4800363;29;20235;-82
2022/11/09 07:20:32;;;;;;;7.30;1.80;;;10.80;99.90;;;;;;4795698;29;20045;-83
2022/11/09 07:22:58;;;;;;;4.93;1.98;;;10.80;99.90;;;;;;4787970;29;20053;-82
2022/11/09 07:25:26;;;;;;;9.63;2.00;;;10.80;99.90;;;;;;4815341;29;20762;-84
2022/11/09 07:27:51;;;;;;;7.30;2.33;;;10.80;99.90;;;;;;4799265;29;20393;-84
2022/11/09 07:30:17;;;;;;;7.30;1.95;;;10.80;99.90;;;;;;4811320;29;20061;-82
2022/11/09 07:32:43;;;;;;;6.70;2.40;;;10.90;99.90;;;;;;4801140;29;20500;-83
2022/11/09 07:35:09;;;;;;;7.38;2.00;;;10.90;99.90;;;;;;4799181;29;20045;-82
2022/11/09 07:37:35;;;;;;;6.38;2.15;;;10.90;99.90;;;;;;4783821;29;20050;-84
2022/11/09 07:40:01;;;;;;;8.50;2.40;;;10.90;99.90;;;;;;4785844;29;20222;-82
2022/11/09 07:42:27;;;;;;;10.27;2.45;;;10.90;99.90;;;;;;4800039;29;20062;-83
2022/11/09 07:44:53;;;;;;;9.05;2.17;;;10.90;99.90;;;;;;4801156;29;20068;-83
2022/11/09 07:47:19;;;;;;;6.85;1.98;;;10.90;99.90;;;;;;4812947;29;20488;-83
2022/11/09 07:49:45;;;;;;;9.45;2.38;;;11.00;99.90;;;;;;4798979;29;20061;-83
2022/11/09 07:52:11;;;;;;;12.13;2.95;;;10.90;99.90;;;;;;4802156;29;20050;-83
2022/11/09 07:54:38;;;;;;;6.18;1.98;;;10.90;99.90;;;;;;4797112;29;20051;-83
2022/11/09 07:57:05;;;;;;;6.55;1.83;;;11.00;99.90;;;;;;4801781;29;20300;-83
2022/11/09 07:59:30;;;;;;;8.85;2.58;;;11.10;99.90;;;;;;4813338;29;20979;-83
2022/11/09 08:01:57;;;;;;;8.05;2.10;;;11.10;99.90;;;;;;4800859;29;20061;-85
2022/11/09 08:04:23;;;;;;;6.63;2.13;;;11.70;99.90;;;;;;4787458;29;20061;-83
2022/11/09 08:06:51;;;;;;;7.88;2.10;;;12.00;99.90;;;;;;4814319;29;20049;-83
2022/11/09 08:09:18;;;;;;;5.45;2.25;;;11.20;99.90;;;;;;4800520;29;20050;-83
2022/11/09 08:11:43;;;;;;;8.88;2.30;;;11.20;99.90;;;;;;4815385;29;20558;-84
2022/11/09 08:14:09;;;;;;;11.65;2.35;;;11.20;99.90;;;;;;4808654;29;20484;-82
2022/11/09 08:16:35;;;;;;;9.25;2.42;;;11.30;99.90;;;;;;4800554;29;20069;-84
2022/11/09 08:19:01;;;;;;;9.20;2.50;;;11.40;99.90;;;;;;4798052;29;20094;-83
2022/11/09 08:21:27;;;;;;;6.80;2.22;;;11.40;99.90;;;;;;4788619;29;20066;-83
2022/11/09 08:23:52;;;;;;;10.95;2.50;;;11.60;99.90;;;;;;4795543;29;20050;-84
2022/11/09 08:26:18;;;;;;;6.88;2.03;;;10.60;99.90;;;;;;4817392;29;20054;-84
2022/11/09 08:28:44;;;;;;;9.23;2.63;;;11.70;99.90;;;;;;4797447;29;20050;-85
2022/11/09 08:31:10;;;;;;;7.18;2.05;;;11.70;99.90;;;;;;4786200;29;20057;-83
2022/11/09 08:33:39;;;;;;;10.27;2.55;;;11.70;99.90;;;;;;4800587;29;20096;-83
2022/11/09 08:36:11;;;;;;;7.63;2.60;;;11.70;99.90;;;;;;4799441;29;20041;-84
2022/11/09 08:38:37;;;;;;;10.23;2.30;;;11.70;99.90;;;;;;4815746;29;20046;-83
2022/11/09 08:41:03;;;;;;;9.18;2.38;;;11.70;99.90;;;;;;4813591;29;20192;-83
2022/11/09 08:43:29;;;;;;;7.63;2.08;;;11.70;99.90;;;;;;4799236;29;20073;-83
2022/11/09 08:45:55;;;;;;;11.43;2.38;;;11.70;99.90;;;;;;4814165;29;20058;-84
2022/11/09 08:48:21;;;;;;;10.52;2.42;;;11.80;99.90;;;;;;4798118;29;20073;-83
2022/11/09 08:50:52;;;;;;;10.40;2.92;;;11.70;99.90;;;;;;4818991;29;20049;-85
2022/11/09 08:53:18;;;;;;;9.32;2.00;;;11.80;99.90;;;;;;4816894;29;20492;-82
2022/11/09 08:55:43;;;;;;;7.72;2.30;;;11.80;99.90;;;;;;4814827;29;20048;-82
2022/11/09 08:58:12;;;;;;;8.32;2.20;;;12.00;99.90;;;;;;4817688;29;20913;-82
2022/11/09 09:00:37;;;;;;;6.35;2.33;;;12.00;99.90;;;;;;4804540;29;20480;-85
2022/11/09 09:03:04;;;;;;;6.15;2.38;;;12.20;99.90;;;;;;4821438;29;20056;-85
2022/11/09 09:05:43;;;;;;;11.18;2.50;;;12.20;99.90;;;;;;4802811;29;20054;-85
2022/11/09 09:08:11;;;;;;;8.82;2.08;;;12.30;99.90;;;;;;4818175;29;20061;-85
2022/11/09 09:10:39;;;;;;;5.47;1.98;;;12.30;99.90;;;;;;4800550;29;20496;-85
2022/11/09 09:13:14;;;;;;;8.68;2.17;;;12.40;99.90;;;;;;4819375;29;20143;-85
2022/11/09 09:15:42;;;;;;;9.20;2.60;;;12.60;99.90;;;;;;4800641;29;20058;-84
2022/11/09 09:18:08;;;;;;;6.65;1.77;;;12.40;99.90;;;;;;4804944;29;20058;-84
2022/11/09 09:20:34;;;;;;;5.72;1.90;;;12.50;99.90;;;;;;4805489;29;20133;-90
2022/11/09 09:23:00;;;;;;;11.63;2.15;;;12.70;99.90;;;;;;4803961;29;20147;-83
2022/11/09 09:25:27;;;;;;;9.65;2.72;;;12.70;99.90;;;;;;4802830;29;20057;-83
2022/11/09 09:27:53;;;;;;;8.25;2.45;;;12.90;99.90;;;;;;4799870;29;20064;-84
2022/11/09 09:30:19;;;;;;;5.97;2.10;;;13.00;99.90;;;;;;4812497;29;20050;-84
2022/11/09 09:32:46;;;;;;;5.95;2.20;;;13.10;99.90;;;;;;4798117;29;20038;-84
2022/11/09 09:35:12;;;;;;;9.70;2.35;;;13.20;99.90;;;;;;4799492;29;20050;-84
2022/11/09 09:37:42;;;;;;;8.75;2.53;;;13.50;99.90;;;;;;4803113;29;20054;-85
2022/11/09 09:40:28;;;;;;;11.07;2.65;;;14.00;99.90;;;;;;4832243;29;20121;-84
2022/11/09 09:42:59;;;;;;;13.27;2.25;;;14.60;99.90;;;;;;4802568;29;20050;-85
2022/11/09 09:45:33;;;;;;;8.02;2.03;;;15.10;99.90;;;;;;4817156;29;20053;-84
2022/11/09 09:48:41;;;;;;;7.50;2.08;;;14.70;99.90;;;;;;4804014;29;20154;-83
2022/11/09 09:51:23;;;;;;;8.35;2.53;;;14.30;99.90;;;;;;4795577;29;20061;-84
2022/11/09 09:53:55;;;;;;;10.05;1.92;;;14.00;99.90;;;;;;4803701;29;20114;-84
2022/11/09 09:56:24;;;;;;;9.05;1.88;;;14.70;99.90;;;;;;4815284;29;20042;-84
2022/11/09 09:59:13;;;;;;;7.63;2.25;;;13.70;99.90;;;;;;4803041;29;20072;-85
2022/11/09 10:01:42;;;;;;;5.18;2.20;;;13.00;99.90;;;;;;4816453;29;20111;-84
2022/11/09 10:04:16;;;;;;;8.93;2.20;;;13.50;99.90;;;;;;4802720;29;20062;-86
2022/11/09 10:06:45;;;;;;;7.57;2.13;;;13.70;99.90;;;;;;4801801;29;20050;-85
2022/11/09 10:09:40;;;;;;;8.32;2.22;;;13.80;99.90;;;;;;4798284;29;20073;-84
2022/11/09 10:12:36;;;;;;;8.95;2.30;;;13.70;99.90;;;;;;4799964;29;20530;-85
2022/11/09 10:15:23;;;;;;;6.68;2.35;;;13.70;99.90;;;;;;4815303;29;20064;-85
2022/11/09 10:18:07;;;;;;;9.13;2.47;;;13.70;99.90;;;;;;4820148;29;20066;-86
2022/11/09 10:21:10;;;;;;;9.23;2.75;;;13.70;99.90;;;;;;4812598;29;20080;-90
2022/11/09 10:23:42;;;;;;;9.75;2.47;;;13.70;99.90;;;;;;4807515;29;20070;-86
2022/11/09 10:26:22;;;;;;;9.77;2.80;;;14.00;99.90;;;;;;4800061;29;20057;-86
2022/11/09 10:29:00;;;;;;;9.55;2.17;;;14.10;99.90;;;;;;4830509;29;20049;-84
2022/11/09 10:31:31;;;;;;;7.45;2.60;;;14.00;99.90;;;;;;4813321;29;20053;-85
2022/11/09 10:34:04;;;;;;;8.98;2.53;;;15.00;99.90;;;;;;4798369;29;20142;-85
2022/11/09 10:36:56;;;;;;;9.65;2.50;;;13.90;99.90;;;;;;4800338;29;20057;-84
2022/11/09 10:39:37;;;;;;;7.65;2.35;;;13.80;99.90;;;;;;4815832;29;20146;-84
2022/11/09 10:42:02;;;;;;;13.13;2.70;;;13.80;99.90;;;;;;4804645;29;20563;-83
2022/11/09 10:44:28;;;;;;;10.27;2.58;;;13.80;99.90;;;;;;4795682;29;20121;-84
2022/11/09 10:47:10;;;;;;;5.72;2.30;;;13.80;99.90;;;;;;4783719;29;20054;-86
2022/11/09 10:49:39;;;;;;;8.77;2.30;;;13.40;99.90;;;;;;4811755;29;20054;-86
2022/11/09 10:52:25;;;;;;;6.95;2.45;;;13.80;99.90;;;;;;4793972;29;20045;-85
2022/11/09 10:54:51;;;;;;;9.45;2.63;;;13.70;99.90;;;;;;4798939;29;20058;-84
2022/11/09 10:57:26;;;;;;;10.10;3.15;;;13.60;99.90;;;;;;4799589;29;20064;-85
2022/11/09 10:59:56;;;;;;;9.80;2.38;;;13.60;99.90;;;;;;4797999;29;20137;-85
2022/11/09 11:02:25;;;;;;;8.40;2.28;;;13.60;99.90;;;;;;4813384;29;20045;-84
2022/11/09 11:05:32;;;;;;;6.75;2.42;;;13.60;99.90;;;;;;4800566;29;20045;-83
2022/11/09 11:08:04;;;;;;;8.80;2.50;;;13.50;99.90;;;;;;4813342;29;20106;-85
2022/11/09 11:10:33;;;;;;;7.75;2.65;;;13.50;99.90;;;;;;4811970;29;20077;-85
2022/11/09 11:13:02;;;;;;;7.45;2.90;;;13.50;99.90;;;;;;4794667;29;20512;-86
2022/11/09 11:15:41;;;;;;;9.57;2.83;;;14.50;99.90;;;;;;4817685;29;20532;-85
2022/11/09 11:18:22;;;;;;;9.38;2.70;;;13.50;99.90;;;;;;4817878;29;20059;-87
2022/11/09 11:21:20;;;;;;;10.27;3.17;;;13.30;99.90;;;;;;4807329;29;20049;-86
2022/11/09 11:24:19;;;;;;;7.85;2.58;;;12.90;99.90;;;;;;4801854;29;20137;-83
2022/11/09 11:27:10;;;;;;;11.90;2.60;;;13.20;99.90;;;;;;4824237;29;20066;-85
2022/11/09 11:29:53;;;;;;;7.60;2.47;;;13.10;99.90;;;;;;4815308;29;20050;-84
2022/11/09 11:32:24;;;;;;;7.63;2.40;;;13.10;99.90;;;;;;4812331;29;20384;-84
2022/11/09 11:34:52;;;;;;;7.75;3.05;;;13.00;99.90;;;;;;4804337;29;20053;-83
2022/11/09 11:37:27;;;;;;;9.98;3.08;;;12.90;99.90;;;;;;4803519;29;20053;-84
2022/11/09 11:40:05;;;;;;;7.05;2.60;;;12.10;99.90;;;;;;4831883;29;20173;-86
2022/11/09 11:42:37;;;;;;;9.40;2.70;;;12.70;99.90;;;;;;4804286;29;20093;-86
2022/11/09 11:45:21;;;;;;;9.65;2.45;;;12.70;99.90;;;;;;4803410;29;20054;-87
2022/11/09 11:48:08;;;;;;;;;;;;;;;;;;;;;
2022/11/09 11:51:00;;;;;;;5.60;1.88;;;12.50;99.90;;;;;;4813712;29;20053;-87
2022/11/09 11:53:52;;;;;;;5.85;2.25;;;12.40;99.90;;;;;;4810100;29;20045;-85
2022/11/09 11:56:45;;;;;;;5.38;1.60;;;12.40;99.90;;;;;;4814202;29;20068;-86
2022/11/09 11:59:55;;;;;;;5.15;1.65;;;11.60;99.90;;;;;;4808883;29;20104;-86
2022/11/09 12:03:01;;;;;;;2.95;1.27;;;12.30;99.90;;;;;;4813018;29;20077;-86
2022/11/09 12:05:35;;;;;;;3.33;1.00;;;12.10;99.90;;;;;;4812231;29;20050;-87
2022/11/09 12:08:41;;;;;;;1.90;1.00;;;12.10;99.90;;;;;;4798170;29;20635;-87
2022/11/09 12:11:40;;;;;;;1.40;0.70;;;12.10;99.90;;;;;;4804351;29;20050;-85
2022/11/09 12:14:44;;;;;;;1.40;0.70;;;12.00;99.90;;;;;;4797267;29;20077;-86
2022/11/09 12:17:32;;;;;;;0.57;0.50;;;12.00;99.90;;;;;;4800175;29;20066;-87
2022/11/09 12:20:15;;;;;;;4.45;1.00;;;11.90;99.90;;;;;;4782848;29;20057;-84
2022/11/09 12:23:04;;;;;;;2.37;0.80;;;11.90;99.90;;;;;;4814370;29;20149;-84
2022/11/09 12:26:03;;;;;;;2.53;0.80;;;11.90;99.90;;;;;;4814755;29;20310;-85
2022/11/09 12:28:38;;;;;;;4.15;1.10;;;11.90;99.90;;;;;;4813094;29;20121;-85
2022/11/09 12:31:30;;;;;;;2.65;0.98;;;11.90;99.90;;;;;;4815778;29;20488;-86
2022/11/09 12:34:11;;;;;;;3.45;0.98;;;12.00;99.90;;;;;;4802870;29;20057;-86
2022/11/09 12:37:29;;;;;;;2.25;1.00;;;11.90;99.90;;;;;;4816492;29;20052;-85
2022/11/09 12:40:30;;;;;;;5.10;1.17;;;12.00;99.90;;;;;;4777824;29;20662;-84
2022/11/09 12:43:05;;;;;;;3.75;1.10;;;11.70;99.90;;;;;;4801442;29;20121;-85
2022/11/09 12:45:37;;;;;;;5.70;1.10;;;12.00;99.90;;;;;;4799691;29;20046;-86
2022/11/09 12:48:30;;;;;;;6.40;1.45;;;12.00;99.90;;;;;;4802305;29;20060;-85
2022/11/09 12:51:01;;;;;;;4.35;1.38;;;12.10;99.90;;;;;;4797357;29;20169;-85
2022/11/09 12:53:40;;;;;;;4.65;1.55;;;12.10;99.90;;;;;;4783165;29;20081;-84
2022/11/09 12:56:26;;;;;;;7.18;1.60;;;12.10;99.90;;;;;;4800792;29;20105;-86
2022/11/09 12:59:18;;;;;;;10.15;1.60;;;11.80;99.90;;;;;;4814274;29;20058;-86
2022/11/09 13:01:52;;;;;;;6.28;1.50;;;12.40;99.90;;;;;;4807338;29;20073;-86
2022/11/09 13:04:25;;;;;;;5.68;1.90;;;12.10;99.90;;;;;;4805075;29;20076;-84
2022/11/09 13:07:03;;;;;;;8.77;1.65;;;12.60;99.90;;;;;;4805301;29;20093;-83